createdAt,value
2024-02-22T00:01:44.360Z,92.07
2024-02-22T00:04:11.738Z,96.72
2024-02-22T00:06:39.573Z,86.70
2024-02-22T00:09:06.550Z,97.35
2024-02-22T00:11:33.677Z,104.40
2024-02-22T00:14:00.743Z,88.60
2024-02-22T00:16:27.902Z,93.55
2024-02-22T00:18:54.830Z,93.38
2024-02-22T00:21:21.746Z,91.10
2024-02-22T00:23:49.309Z,86.30
2024-02-22T00:26:16.467Z,93.82
2024-02-22T00:28:43.690Z,93.30
2024-02-22T00:31:10.675Z,92.57
2024-02-22T00:33:37.499Z,96.70
2024-02-22T00:36:04.865Z,101.75
2024-02-22T00:38:31.717Z,94.72
2024-02-22T00:40:58.554Z,92.28
2024-02-22T00:43:25.495Z,94.18
2024-02-22T00:45:53.293Z,95.28
2024-02-22T00:48:20.302Z,92.63
2024-02-22T00:50:47.331Z,90.35
2024-02-22T00:53:14.350Z,92.90
2024-02-22T00:55:41.320Z,91.70
2024-02-22T00:58:10.715Z,93.43
2024-02-22T01:00:37.952Z,94.55
2024-02-22T01:03:08.814Z,93.55
2024-02-22T01:05:35.781Z,96.75
2024-02-22T01:08:05.141Z,91.60
2024-02-22T01:10:32.236Z,89.93
2024-02-22T01:12:59.160Z,93.95
2024-02-22T01:15:26.040Z,92.50
2024-02-22T01:17:52.921Z,89.25
2024-02-22T01:20:20.393Z,89.20
2024-02-22T01:22:47.733Z,85.65
2024-02-22T01:25:14.714Z,85.38
2024-02-22T01:27:41.644Z,97.53
2024-02-22T01:30:08.721Z,91.25
2024-02-22T01:32:37.053Z,84.88
2024-02-22T01:35:05.459Z,86.50
2024-02-22T01:37:32.982Z,87.15
2024-02-22T01:39:59.921Z,91.28
2024-02-22T01:42:27.715Z,80.50
2024-02-22T01:44:54.525Z,80.15
2024-02-22T01:47:21.681Z,82.43
2024-02-22T01:49:49.634Z,89.65
2024-02-22T01:52:16.600Z,97.78
2024-02-22T01:54:43.517Z,90.45
2024-02-22T01:57:10.954Z,91.15
2024-02-22T01:59:37.863Z,89.18
2024-02-22T02:02:05.584Z,97.55
2024-02-22T02:04:32.978Z,99.38
2024-02-22T02:07:00.392Z,99.15
2024-02-22T02:09:27.602Z,96.18
2024-02-22T02:11:54.532Z,107.10
2024-02-22T02:14:21.603Z,92.45
2024-02-22T02:16:48.663Z,95.45
2024-02-22T02:19:20.654Z,91.18
2024-02-22T02:22:21.538Z,92.72
2024-02-22T02:25:04.462Z,90.68
2024-02-22T02:27:32.244Z,92.85
2024-02-22T02:29:59.109Z,92.22
2024-02-22T02:32:26.055Z,87.22
2024-02-22T02:34:53.059Z,101.13
2024-02-22T02:37:19.909Z,88.30
2024-02-22T02:39:46.767Z,95.43
2024-02-22T02:42:14.695Z,103.53
2024-02-22T02:44:41.626Z,98.35
2024-02-22T02:47:09.907Z,108.85
2024-02-22T02:49:36.899Z,95.70
2024-02-22T02:52:04.637Z,94.60
2024-02-22T02:54:31.640Z,94.85
2024-02-22T02:56:58.537Z,95.07
2024-02-22T02:59:25.407Z,88.40
2024-02-22T03:01:52.409Z,91.82
2024-02-22T03:04:20.102Z,89.28
2024-02-22T03:06:47.431Z,100.47
2024-02-22T03:09:14.404Z,95.00
2024-02-22T03:11:41.476Z,98.15
2024-02-22T03:14:10.768Z,94.40
2024-02-22T03:16:40.851Z,94.95
2024-02-22T03:19:07.942Z,92.03
2024-02-22T03:21:35.134Z,93.75
2024-02-22T03:24:02.112Z,101.90
2024-02-22T03:26:28.928Z,95.18
2024-02-22T03:28:55.944Z,95.13
2024-02-22T03:31:23.748Z,107.28
2024-02-22T03:33:50.898Z,103.45
2024-02-22T03:36:17.828Z,108.18
2024-02-22T03:38:44.726Z,102.25
2024-02-22T03:41:21.881Z,110.90
2024-02-22T03:43:49.010Z,102.20
2024-02-22T03:46:16.031Z,102.65
2024-02-22T03:48:42.884Z,114.32
2024-02-22T03:51:09.798Z,108.13
2024-02-22T03:53:36.612Z,105.60
2024-02-22T03:56:04.488Z,115.78
2024-02-22T03:58:31.376Z,111.15
2024-02-22T04:00:59.148Z,111.53
2024-02-22T04:03:26.760Z,106.20
2024-02-22T04:05:53.712Z,105.55
2024-02-22T04:08:20.677Z,97.40
2024-02-22T04:10:47.718Z,97.05
2024-02-22T04:13:14.711Z,109.30
2024-02-22T04:15:41.634Z,104.85
2024-02-22T04:18:08.832Z,111.85
2024-02-22T04:20:35.918Z,104.78
2024-02-22T04:23:02.789Z,116.28
2024-02-22T04:25:29.685Z,104.50
2024-02-22T04:27:56.666Z,100.05
2024-02-22T04:30:23.647Z,99.80
2024-02-22T04:32:50.910Z,106.88
2024-02-22T04:35:18.158Z,109.93
2024-02-22T04:37:45.323Z,101.97
2024-02-22T04:40:12.469Z,111.18
2024-02-22T04:42:39.446Z,113.10
2024-02-22T04:45:07.724Z,122.82
2024-02-22T04:47:38.800Z,99.40
2024-02-22T04:50:07.140Z,112.17
2024-02-22T04:52:34.084Z,103.30
2024-02-22T04:55:04.450Z,101.18
2024-02-22T04:57:31.631Z,97.72
2024-02-22T04:59:58.512Z,95.97
2024-02-22T05:02:25.459Z,113.45
2024-02-22T05:04:52.469Z,102.97
2024-02-22T05:07:19.453Z,97.53
2024-02-22T05:09:46.590Z,108.57
2024-02-22T05:12:13.515Z,100.22
2024-02-22T05:14:45.015Z,103.93
2024-02-22T05:17:12.952Z,109.55
2024-02-22T05:19:40.985Z,103.03
2024-02-22T05:22:08.103Z,93.82
2024-02-22T05:24:35.483Z,96.30
2024-02-22T05:27:02.390Z,109.88
2024-02-22T05:29:29.238Z,101.95
2024-02-22T05:31:59.400Z,115.95
2024-02-22T05:34:26.796Z,101.60
2024-02-22T05:36:53.917Z,111.00
2024-02-22T05:39:21.112Z,116.28
2024-02-22T05:41:48.373Z,113.05
2024-02-22T05:44:18.112Z,120.40
2024-02-22T05:46:45.256Z,111.57
2024-02-22T05:49:12.228Z,118.90
2024-02-22T05:51:39.235Z,115.63
2024-02-22T05:54:06.122Z,108.28
2024-02-22T05:56:33.398Z,111.88
2024-02-22T05:59:00.352Z,136.57
2024-02-22T06:01:27.437Z,116.78
2024-02-22T06:03:54.412Z,108.63
2024-02-22T06:06:21.300Z,109.53
2024-02-22T06:08:48.235Z,118.68
2024-02-22T06:11:16.705Z,114.70
2024-02-22T06:13:44.163Z,107.22
2024-02-22T06:16:11.508Z,110.28
2024-02-22T06:18:38.832Z,110.22
2024-02-22T06:21:07.963Z,114.70
2024-02-22T06:23:35.577Z,116.65
2024-02-22T06:26:05.116Z,106.57
2024-02-22T06:28:33.079Z,105.90
2024-02-22T06:30:59.970Z,111.10
2024-02-22T06:33:26.923Z,107.43
2024-02-22T06:35:54.068Z,125.03
2024-02-22T06:38:20.956Z,113.20
2024-02-22T06:40:52.538Z,110.00
2024-02-22T06:43:20.065Z,110.57
2024-02-22T06:45:47.134Z,113.22
2024-02-22T06:48:14.326Z,119.63
2024-02-22T06:50:41.383Z,113.55
2024-02-22T06:53:09.051Z,118.82
2024-02-22T06:55:36.228Z,111.15
2024-02-22T06:58:04.409Z,122.15
2024-02-22T07:00:34.135Z,120.68
2024-02-22T07:03:04.604Z,123.80
2024-02-22T07:05:32.914Z,135.50
2024-02-22T07:08:00.186Z,123.80
2024-02-22T07:10:27.307Z,136.63
2024-02-22T07:12:54.536Z,114.50
2024-02-22T07:15:21.421Z,122.95
2024-02-22T07:17:48.534Z,124.22
2024-02-22T07:20:15.795Z,116.47
2024-02-22T07:22:44.492Z,121.88
2024-02-22T07:25:14.973Z,116.00
2024-02-22T07:27:41.830Z,114.53
2024-02-22T07:30:09.992Z,113.78
2024-02-22T07:32:37.612Z,107.15
2024-02-22T07:35:04.994Z,105.45
2024-02-22T07:37:32.091Z,110.88
2024-02-22T07:39:58.946Z,107.05
2024-02-22T07:42:25.880Z,108.03
2024-02-22T07:44:52.893Z,104.18
2024-02-22T07:47:19.992Z,105.65
2024-02-22T07:49:46.956Z,116.95
2024-02-22T07:52:14.179Z,118.75
2024-02-22T07:54:42.057Z,124.38
2024-02-22T07:57:09.159Z,119.15
2024-02-22T07:59:36.052Z,117.20
2024-02-22T08:02:03.689Z,109.50
2024-02-22T08:04:30.776Z,121.47
2024-02-22T08:06:58.061Z,119.13
2024-02-22T08:09:25.550Z,127.85
2024-02-22T08:11:52.996Z,114.38
2024-02-22T08:14:20.136Z,121.78
2024-02-22T08:16:47.974Z,124.57
2024-02-22T08:19:15.058Z,120.38
2024-02-22T08:21:42.435Z,134.68
2024-02-22T08:24:11.737Z,129.27
2024-02-22T08:26:38.690Z,151.43
2024-02-22T08:29:05.738Z,175.55
2024-02-22T08:31:32.856Z,149.32
2024-02-22T08:33:59.941Z,149.32
2024-02-22T08:36:26.917Z,147.90
2024-02-22T08:38:53.713Z,154.55
2024-02-22T08:41:22.945Z,152.90
2024-02-22T08:43:49.837Z,151.45
2024-02-22T08:46:16.734Z,153.40
2024-02-22T08:48:43.769Z,149.18
2024-02-22T08:51:12.435Z,143.38
2024-02-22T08:53:39.724Z,130.18
2024-02-22T08:56:10.265Z,127.38
2024-02-22T08:58:40.214Z,148.27
2024-02-22T09:01:08.181Z,128.38
2024-02-22T09:03:35.665Z,121.85
2024-02-22T09:06:02.793Z,126.22
2024-02-22T09:08:29.661Z,135.13
2024-02-22T09:10:56.707Z,127.13
2024-02-22T09:13:23.694Z,125.43
2024-02-22T09:15:50.927Z,137.77
2024-02-22T09:18:19.124Z,126.03
2024-02-22T09:20:50.947Z,129.23
2024-02-22T09:23:18.610Z,148.90
2024-02-22T09:25:45.650Z,132.77
2024-02-22T09:28:13.110Z,124.32
2024-02-22T09:30:40.076Z,114.38
2024-02-22T09:33:08.986Z,131.20
2024-02-22T09:35:37.170Z,124.40
2024-02-22T09:38:06.318Z,130.60
2024-02-22T09:40:34.918Z,137.25
2024-02-22T09:43:02.592Z,133.63
2024-02-22T09:45:30.468Z,131.07
2024-02-22T09:47:57.858Z,118.15
2024-02-22T09:50:25.819Z,137.25
2024-02-22T09:52:53.085Z,126.70
2024-02-22T09:55:21.057Z,128.27
2024-02-22T09:57:49.689Z,124.55
2024-02-22T10:00:19.919Z,120.70
2024-02-22T10:02:47.855Z,130.38
2024-02-22T10:05:15.446Z,128.43
2024-02-22T10:07:42.586Z,129.35
2024-02-22T10:10:09.768Z,122.45
2024-02-22T10:12:38.283Z,118.20
2024-02-22T10:15:12.439Z,129.70
2024-02-22T10:17:40.114Z,123.90
2024-02-22T10:20:08.920Z,123.70
2024-02-22T10:22:37.783Z,127.03
2024-02-22T10:25:15.960Z,125.50
2024-02-22T10:27:49.417Z,126.60
2024-02-22T10:30:17.408Z,125.68
2024-02-22T10:32:46.230Z,126.82
2024-02-22T10:35:14.464Z,141.88
2024-02-22T10:37:43.332Z,139.40
2024-02-22T10:40:12.234Z,141.05
2024-02-22T10:42:40.624Z,141.68
2024-02-22T10:45:09.054Z,137.48
2024-02-22T10:47:38.461Z,137.45
2024-02-22T10:50:08.992Z,134.93
2024-02-22T10:52:42.675Z,137.05
2024-02-22T10:55:15.423Z,139.50
2024-02-22T10:57:46.195Z,129.38
2024-02-22T11:00:15.994Z,142.38
2024-02-22T11:02:45.041Z,145.30
2024-02-22T11:05:13.410Z,141.77
2024-02-22T11:07:59.387Z,137.02
2024-02-22T11:10:26.827Z,139.50
2024-02-22T11:12:53.767Z,122.38
2024-02-22T11:15:26.296Z,141.18
2024-02-22T11:20:37.355Z,135.77
2024-02-22T11:23:14.975Z,122.43
2024-02-22T11:25:42.502Z,136.32
2024-02-22T11:28:10.834Z,124.03
2024-02-22T11:30:37.795Z,132.05
2024-02-22T11:33:07.941Z,133.20
2024-02-22T11:35:35.075Z,126.32
2024-02-22T11:38:07.254Z,136.18
2024-02-22T11:40:36.332Z,116.93
2024-02-22T11:43:04.459Z,114.20
2024-02-22T11:45:32.533Z,103.28
2024-02-22T11:47:59.969Z,108.18
2024-02-22T11:50:32.024Z,113.30
2024-02-22T11:53:00.766Z,107.72
2024-02-22T11:55:28.380Z,123.80
2024-02-22T11:57:55.524Z,99.28
2024-02-22T12:00:22.419Z,82.05
2024-02-22T12:02:49.517Z,91.97
2024-02-22T12:05:19.018Z,92.32
2024-02-22T12:07:47.264Z,88.75
2024-02-22T12:10:14.335Z,75.50
2024-02-22T12:12:41.346Z,73.28
2024-02-22T12:15:11.335Z,80.20
2024-02-22T12:17:40.179Z,79.80
2024-02-22T12:20:13.979Z,77.15
2024-02-22T12:22:48.163Z,76.93
2024-02-22T12:25:15.231Z,90.20
2024-02-22T12:27:42.373Z,76.28
2024-02-22T12:30:09.914Z,82.00
2024-02-22T12:32:48.347Z,73.65
2024-02-22T12:35:16.524Z,93.60
2024-02-22T12:37:43.392Z,86.53
2024-02-22T12:40:12.856Z,74.68
2024-02-22T12:42:39.667Z,76.15
2024-02-22T12:45:06.874Z,76.45
2024-02-22T12:47:34.652Z,78.45
2024-02-22T12:50:02.038Z,74.10
2024-02-22T12:52:28.984Z,75.78
2024-02-22T12:54:56.237Z,77.38
2024-02-22T12:57:23.121Z,62.63
2024-02-22T12:59:51.276Z,64.00
2024-02-22T13:02:18.235Z,68.28
2024-02-22T13:04:45.222Z,69.75
2024-02-22T13:07:14.383Z,67.45
2024-02-22T13:09:41.739Z,65.00
2024-02-22T13:12:08.895Z,74.53
2024-02-22T13:14:35.845Z,64.65
2024-02-22T13:17:02.808Z,68.30
2024-02-22T13:19:29.613Z,70.90
2024-02-22T13:21:56.887Z,72.85
2024-02-22T13:24:24.534Z,66.70
2024-02-22T13:26:51.375Z,74.32
2024-02-22T13:29:18.315Z,67.80
2024-02-22T13:31:45.568Z,62.28
2024-02-22T13:34:12.547Z,72.20
2024-02-22T13:36:39.540Z,68.03
2024-02-22T13:39:08.808Z,67.93
2024-02-22T13:41:35.918Z,63.83
2024-02-22T13:44:11.401Z,68.07
2024-02-22T13:46:42.942Z,70.45
2024-02-22T13:49:17.868Z,75.82
2024-02-22T13:51:47.543Z,76.15
2024-02-22T13:54:15.149Z,73.72
2024-02-22T13:56:43.877Z,70.40
2024-02-22T13:59:12.720Z,73.45
2024-02-22T14:01:40.383Z,78.20
2024-02-22T14:04:07.748Z,69.88
2024-02-22T14:06:34.890Z,69.60
2024-02-22T14:09:02.235Z,63.47
2024-02-22T14:11:29.187Z,73.50
2024-02-22T14:13:56.063Z,57.85
2024-02-22T14:16:23.009Z,63.10
2024-02-22T14:18:50.966Z,64.05
2024-02-22T14:21:19.517Z,65.20
2024-02-22T14:23:49.423Z,69.93
2024-02-22T14:26:17.880Z,69.95
2024-02-22T14:28:45.010Z,65.60
2024-02-22T14:31:11.864Z,63.47
2024-02-22T14:33:39.462Z,72.00
2024-02-22T14:36:06.634Z,70.50
2024-02-22T14:38:34.777Z,76.32
2024-02-22T14:41:01.669Z,70.10
2024-02-22T14:43:28.558Z,69.32
2024-02-22T14:45:55.475Z,73.95
2024-02-22T14:48:23.516Z,75.18
2024-02-22T14:50:50.464Z,77.90
2024-02-22T14:53:17.454Z,87.15
2024-02-22T14:55:46.125Z,79.10
2024-02-22T14:58:13.167Z,79.75
2024-02-22T15:00:40.570Z,79.55
2024-02-22T15:03:07.390Z,77.22
2024-02-22T15:05:34.422Z,89.97
2024-02-22T15:08:01.821Z,88.63
2024-02-22T15:10:28.740Z,91.97
2024-02-22T15:12:55.590Z,88.60
2024-02-22T15:15:22.439Z,86.45
2024-02-22T15:17:50.024Z,87.95
2024-02-22T15:20:16.940Z,90.28
2024-02-22T15:22:43.866Z,88.63
2024-02-22T15:25:14.729Z,89.70
2024-02-22T15:27:43.838Z,88.78
2024-02-22T15:30:11.342Z,86.97
2024-02-22T15:32:38.882Z,88.78
2024-02-22T15:35:06.594Z,98.32
2024-02-22T15:37:33.731Z,100.85
2024-02-22T15:40:01.018Z,93.35
2024-02-22T15:42:27.922Z,101.22
2024-02-22T15:44:55.162Z,88.57
2024-02-22T15:47:22.230Z,88.15
2024-02-22T15:49:49.218Z,78.70
2024-02-22T15:52:16.097Z,76.93
2024-02-22T15:54:42.900Z,81.18
2024-02-22T15:57:12.588Z,87.28
2024-02-22T15:59:39.724Z,83.43
2024-02-22T16:02:07.019Z,98.88
2024-02-22T16:04:34.003Z,91.00
2024-02-22T16:07:00.984Z,87.75
2024-02-22T16:09:28.675Z,88.53
2024-02-22T16:11:57.287Z,82.70
2024-02-22T16:14:25.242Z,88.85
2024-02-22T16:16:53.444Z,85.03
2024-02-22T16:19:20.440Z,83.13
2024-02-22T16:21:47.333Z,85.88
2024-02-22T16:24:14.428Z,79.80
2024-02-22T16:26:41.285Z,79.32
2024-02-22T16:29:11.057Z,87.68
2024-02-22T16:31:38.344Z,73.85
2024-02-22T16:34:05.318Z,88.85
2024-02-22T16:36:32.316Z,82.47
2024-02-22T16:39:06.697Z,74.30
2024-02-22T16:41:35.806Z,86.25
2024-02-22T16:44:02.867Z,81.78
2024-02-22T16:46:29.776Z,76.07
2024-02-22T16:48:56.788Z,78.55
2024-02-22T16:51:24.110Z,72.85
2024-02-22T16:53:51.445Z,67.00
2024-02-22T16:56:18.717Z,47.25
2024-02-22T16:58:45.794Z,38.92
2024-02-22T17:01:12.834Z,38.25
2024-02-22T17:03:39.860Z,37.55
2024-02-22T17:06:06.910Z,39.80
2024-02-22T17:08:34.215Z,36.38
2024-02-22T17:11:01.771Z,30.95
2024-02-22T17:13:31.261Z,32.63
2024-02-22T17:15:59.372Z,28.08
2024-02-22T17:18:27.925Z,29.73
2024-02-22T17:20:56.271Z,22.73
2024-02-22T17:23:23.447Z,28.38
2024-02-22T17:25:50.467Z,25.77
2024-02-22T17:28:18.224Z,23.85
2024-02-22T17:30:45.066Z,21.98
2024-02-22T17:33:12.073Z,26.42
2024-02-22T17:35:39.111Z,20.63
2024-02-22T17:38:07.548Z,27.08
2024-02-22T17:40:34.759Z,20.90
2024-02-22T17:43:01.641Z,24.33
2024-02-22T17:45:28.603Z,25.58
2024-02-22T17:47:57.145Z,23.88
2024-02-22T17:50:24.383Z,26.58
2024-02-22T17:52:51.274Z,26.00
2024-02-22T17:55:18.219Z,21.75
2024-02-22T17:57:45.175Z,28.20
2024-02-22T18:00:13.538Z,25.75
2024-02-22T18:02:40.480Z,23.42
2024-02-22T18:05:07.754Z,26.40
2024-02-22T18:07:35.027Z,26.10
2024-02-22T18:10:01.926Z,26.52
2024-02-22T18:12:28.769Z,28.35
2024-02-22T18:14:55.898Z,25.33
2024-02-22T18:17:22.840Z,25.13
2024-02-22T18:19:50.129Z,27.52
2024-02-22T18:22:17.756Z,27.35
2024-02-22T18:24:44.737Z,18.90
2024-02-22T18:27:11.784Z,26.13
2024-02-22T18:29:39.464Z,27.80
2024-02-22T18:32:07.190Z,24.38
2024-02-22T18:34:34.492Z,26.73
2024-02-22T18:37:03.378Z,23.17
2024-02-22T18:39:32.204Z,24.50
2024-02-22T18:41:59.066Z,30.52
2024-02-22T18:44:29.162Z,22.33
2024-02-22T18:46:56.558Z,24.30
2024-02-22T18:49:23.771Z,27.42
2024-02-22T18:51:54.019Z,26.15
2024-02-22T18:54:21.419Z,27.58
2024-02-22T18:56:49.320Z,32.25
2024-02-22T18:59:18.622Z,30.08
2024-02-22T19:01:47.386Z,23.95
2024-02-22T19:04:15.524Z,20.77
2024-02-22T19:06:42.665Z,27.65
2024-02-22T19:09:11.016Z,23.00
2024-02-22T19:11:38.159Z,23.23
2024-02-22T19:14:06.432Z,20.38
2024-02-22T19:16:33.444Z,29.40
2024-02-22T19:19:01.678Z,25.58
2024-02-22T19:21:33.129Z,21.52
2024-02-22T19:24:00.077Z,21.75
2024-02-22T19:26:27.018Z,24.13
2024-02-22T19:28:54.761Z,16.30
2024-02-22T19:31:21.733Z,21.77
2024-02-22T19:33:48.829Z,20.33
2024-02-22T19:36:15.958Z,21.67
2024-02-22T19:38:44.526Z,21.80
2024-02-22T19:41:11.565Z,20.58
2024-02-22T19:43:39.447Z,18.17
2024-02-22T19:46:07.489Z,14.77
2024-02-22T19:48:34.882Z,12.52
2024-02-22T19:51:01.767Z,16.10
2024-02-22T19:53:29.648Z,14.75
2024-02-22T19:55:57.996Z,14.23
2024-02-22T19:58:24.894Z,13.30
2024-02-22T20:00:53.031Z,18.80
2024-02-22T20:03:19.924Z,20.23
2024-02-22T20:05:46.885Z,17.15
2024-02-22T20:08:13.912Z,14.05
2024-02-22T20:10:42.097Z,14.73
2024-02-22T20:13:11.150Z,12.05
2024-02-22T20:15:38.006Z,16.75
2024-02-22T20:18:05.400Z,12.75
2024-02-22T20:20:32.439Z,20.77
2024-02-22T20:22:59.830Z,15.93
2024-02-22T20:25:26.672Z,13.55
2024-02-22T20:27:55.221Z,19.10
2024-02-22T20:30:22.230Z,11.32
2024-02-22T20:32:49.133Z,13.30
2024-02-22T20:35:22.198Z,13.60
2024-02-22T20:37:52.794Z,12.75
2024-02-22T20:40:21.032Z,17.10
2024-02-22T20:42:48.152Z,19.00
2024-02-22T20:45:15.830Z,15.85
2024-02-22T20:47:43.067Z,15.75
2024-02-22T20:50:11.329Z,17.17
2024-02-22T20:52:38.382Z,18.40
2024-02-22T20:55:07.331Z,12.30
2024-02-22T20:57:34.222Z,10.85
2024-02-22T21:00:02.182Z,12.30
2024-02-22T21:02:30.471Z,12.55
2024-02-22T21:04:58.118Z,9.27
2024-02-22T21:07:25.195Z,9.35
2024-02-22T21:09:52.581Z,10.73
2024-02-22T21:12:19.690Z,11.65
2024-02-22T21:14:46.588Z,13.70
2024-02-22T21:17:13.591Z,8.52
2024-02-22T21:19:40.525Z,10.98
2024-02-22T21:22:07.365Z,9.43
2024-02-22T21:24:34.196Z,10.82
2024-02-22T21:27:01.047Z,16.10
2024-02-22T21:29:27.947Z,13.32
2024-02-22T21:31:54.853Z,17.38
2024-02-22T21:34:21.782Z,12.38
2024-02-22T21:36:48.698Z,13.40
2024-02-22T21:39:15.794Z,12.05
2024-02-22T21:41:43.142Z,12.13
2024-02-22T21:44:09.982Z,11.45
2024-02-22T21:46:36.998Z,17.35
2024-02-22T21:49:04.475Z,12.52
2024-02-22T21:51:31.348Z,14.63
2024-02-22T21:53:58.459Z,15.23
2024-02-22T21:56:25.326Z,18.05
2024-02-22T21:58:52.198Z,21.98
2024-02-22T22:01:19.109Z,12.57
2024-02-22T22:03:46.457Z,14.27
2024-02-22T22:06:13.461Z,11.18
2024-02-22T22:08:40.326Z,15.30
2024-02-22T22:11:08.656Z,14.35
2024-02-22T22:13:41.506Z,14.98
2024-02-22T22:16:09.884Z,13.65
2024-02-22T22:18:36.935Z,14.98
2024-02-22T22:21:17.070Z,15.18
2024-02-22T22:23:52.199Z,12.13
2024-02-22T22:26:19.620Z,12.27
2024-02-22T22:28:46.702Z,11.50
2024-02-22T22:31:13.615Z,12.05
2024-02-22T22:33:44.445Z,12.13
2024-02-22T22:36:14.828Z,11.13
2024-02-22T22:38:41.801Z,12.23
2024-02-22T22:41:10.610Z,11.02
2024-02-22T22:43:37.568Z,11.40
2024-02-22T22:46:04.504Z,9.30
2024-02-22T22:48:31.611Z,10.80
2024-02-22T22:50:58.537Z,10.25
2024-02-22T22:53:25.464Z,10.32
2024-02-22T22:55:52.515Z,9.85
2024-02-22T22:58:19.410Z,9.70
2024-02-22T23:00:46.238Z,10.90
2024-02-22T23:03:13.133Z,11.63
2024-02-22T23:05:40.075Z,9.75
2024-02-22T23:08:07.471Z,8.13
2024-02-22T23:10:34.397Z,9.50
2024-02-22T23:13:01.285Z,10.55
2024-02-22T23:15:28.088Z,10.75
2024-02-22T23:17:54.966Z,10.32
2024-02-22T23:20:22.126Z,14.05
2024-02-22T23:22:49.042Z,8.13
2024-02-22T23:25:18.234Z,9.15
2024-02-22T23:27:45.659Z,8.07
2024-02-22T23:30:12.997Z,8.82
2024-02-22T23:32:40.037Z,7.80
2024-02-22T23:35:12.421Z,10.77
2024-02-22T23:40:08.283Z,9.48
2024-02-22T23:42:35.091Z,8.90
2024-02-22T23:45:01.919Z,11.02
2024-02-22T23:47:28.853Z,7.95
2024-02-22T23:49:55.805Z,10.90
2024-02-22T23:52:22.641Z,8.55
2024-02-22T23:54:49.454Z,8.55
2024-02-22T23:57:16.311Z,8.50
2024-02-22T23:59:43.142Z,9.35
